Time;durP1;ratioP1;P1;durP2;ratioP2;P2;SDS_P1;SDS_P2;PMS_P1;PMS_P2;Temp;Humidity;BMP_temperature;BMP_pressure;BME280_temperature;BME280_humidity;BME280_pressure;Samples;Min_cycle;Max_cycle;Signal;HPM_P1;HPM_P2
2022/12/19 00:00:43;;;;;;;53.53;28.07;;;0.70;99.90;;;;;;5084385;28;20028;-75
2022/12/19 00:03:09;;;;;;;49.80;26.10;;;0.80;99.90;;;;;;5067842;28;20039;-74
2022/12/19 00:05:37;;;;;;;51.40;27.03;;;0.80;99.90;;;;;;5066790;28;20032;-74
2022/12/19 00:08:05;;;;;;;55.07;28.77;;;0.80;99.90;;;;;;5077106;28;20247;-75
2022/12/19 00:10:31;;;;;;;53.87;28.13;;;0.80;99.90;;;;;;5086767;28;20032;-75
2022/12/19 00:12:58;;;;;;;54.83;28.50;;;0.80;99.90;;;;;;5071642;28;20036;-74
2022/12/19 00:15:24;;;;;;;49.80;28.70;;;0.80;99.90;;;;;;5071257;28;20040;-74
2022/12/19 00:17:50;;;;;;;41.33;23.03;;;0.90;99.90;;;;;;5081353;28;20055;-74
2022/12/19 00:20:16;;;;;;;45.10;25.27;;;0.90;99.90;;;;;;5070473;28;20032;-74
2022/12/19 00:22:43;;;;;;;52.23;28.93;;;0.90;99.90;;;;;;5072173;28;20044;-74
2022/12/19 00:25:09;;;;;;;52.40;29.53;;;0.90;99.90;;;;;;5088494;28;20537;-73
2022/12/19 00:27:36;;;;;;;50.40;28.23;;;0.90;99.90;;;;;;5063753;28;20039;-73
2022/12/19 00:30:02;;;;;;;58.50;31.33;;;0.90;99.90;;;;;;5071214;28;20049;-73
2022/12/19 00:32:29;;;;;;;49.17;25.80;;;0.90;99.90;;;;;;5072135;28;20032;-73
2022/12/19 00:34:56;;;;;;;48.47;26.57;;;0.90;99.90;;;;;;5070968;28;20486;-73
2022/12/19 00:37:22;;;;;;;50.23;27.90;;;0.90;99.90;;;;;;5097105;28;20036;-74
2022/12/19 00:39:48;;;;;;;55.07;29.33;;;0.90;99.90;;;;;;5088046;28;20832;-74
2022/12/19 00:42:15;;;;;;;59.40;31.93;;;0.90;99.90;;;;;;5071468;28;20391;-74
2022/12/19 00:44:41;;;;;;;62.70;33.33;;;0.90;99.90;;;;;;5086918;28;20036;-74
2022/12/19 00:47:07;;;;;;;67.97;35.83;;;0.90;99.90;;;;;;5077920;28;20079;-74
2022/12/19 00:49:34;;;;;;;58.47;30.60;;;0.90;99.90;;;;;;5086772;28;20043;-74
2022/12/19 00:52:00;;;;;;;62.57;33.93;;;0.90;99.90;;;;;;5086977;28;20043;-74
2022/12/19 00:54:26;;;;;;;61.37;32.70;;;0.90;99.90;;;;;;5087058;28;20032;-74
2022/12/19 00:56:52;;;;;;;61.50;31.37;;;0.90;99.90;;;;;;5063138;28;20051;-74
2022/12/19 00:59:19;;;;;;;56.53;30.87;;;0.90;99.90;;;;;;5085900;28;20162;-75
2022/12/19 01:01:45;;;;;;;59.07;29.13;;;0.90;99.90;;;;;;5069193;28;20036;-74
2022/12/19 01:04:14;;;;;;;53.67;30.67;;;1.00;99.90;;;;;;5069230;28;20402;-75
2022/12/19 01:06:41;;;;;;;51.80;28.13;;;1.00;99.90;;;;;;5081898;28;20074;-75
2022/12/19 01:09:10;;;;;;;69.20;34.37;;;1.00;99.90;;;;;;5067685;28;20640;-75
2022/12/19 01:14:22;;;;;;;55.43;31.27;;;1.00;99.90;;;;;;5086654;28;20035;-75
2022/12/19 01:16:49;;;;;;;51.90;28.73;;;1.00;99.90;;;;;;5063984;28;20059;-75
2022/12/19 01:19:16;;;;;;;51.53;27.03;;;1.00;99.90;;;;;;5083894;28;20032;-75
2022/12/19 01:21:42;;;;;;;52.30;29.17;;;1.00;99.90;;;;;;5068439;28;20059;-74
2022/12/19 01:24:08;;;;;;;52.87;28.20;;;1.00;99.90;;;;;;5086450;28;20040;-75
2022/12/19 01:26:35;;;;;;;59.77;31.17;;;1.00;99.90;;;;;;5082647;28;20039;-74
2022/12/19 01:29:01;;;;;;;53.97;28.10;;;1.00;99.90;;;;;;5050232;28;20040;-74
2022/12/19 01:31:27;;;;;;;39.50;22.53;;;1.10;99.90;;;;;;5087443;28;20039;-74
2022/12/19 01:33:55;;;;;;;52.40;29.33;;;1.10;99.90;;;;;;5086240;28;20035;-74
2022/12/19 01:36:22;;;;;;;58.70;28.97;;;1.10;99.90;;;;;;5067863;28;20047;-74
2022/12/19 01:38:49;;;;;;;51.77;26.90;;;1.10;99.90;;;;;;5062884;28;20047;-74
2022/12/19 01:41:15;;;;;;;58.47;28.90;;;1.10;99.90;;;;;;5085647;28;20028;-74
2022/12/19 01:44:02;;;;;;;58.40;30.87;;;1.10;99.90;;;;;;5086622;28;20032;-74
2022/12/19 01:46:43;;;;;;;58.47;31.07;;;1.20;99.90;;;;;;5066655;28;20054;-74
2022/12/19 01:49:30;;;;;;;52.83;27.33;;;1.20;99.90;;;;;;5083217;28;20047;-74
2022/12/19 01:52:00;;;;;;;57.53;30.10;;;1.20;99.90;;;;;;5087149;28;20488;-75
2022/12/19 01:54:34;;;;;;;47.63;25.67;;;1.20;99.90;;;;;;5085891;28;20491;-75
2022/12/19 01:57:03;;;;;;;56.27;28.90;;;1.30;99.90;;;;;;5078190;28;20048;-74
2022/12/19 01:59:34;;;;;;;57.47;30.07;;;1.30;99.90;;;;;;5068448;28;20478;-75
2022/12/19 02:02:31;;;;;;;53.17;28.07;;;1.30;99.90;;;;;;5077949;28;20034;-74
2022/12/19 02:05:00;;;;;;;48.43;26.80;;;1.40;99.90;;;;;;5047487;28;20051;-74
2022/12/19 02:07:27;;;;;;;58.00;30.33;;;1.40;99.90;;;;;;5061853;28;20509;-74
2022/12/19 02:09:55;;;;;;;62.73;33.27;;;1.40;99.90;;;;;;5067869;28;20028;-74
2022/12/19 02:12:29;;;;;;;64.80;33.33;;;1.40;99.90;;;;;;5085173;28;20031;-74
2022/12/19 02:14:57;;;;;;;;;;;1.50;99.90;;;;;;5087330;28;20020;-75
2022/12/19 02:17:47;;;;;;;53.67;29.90;;;1.50;99.90;;;;;;5060844;28;20098;-74
2022/12/19 02:20:30;;;;;;;62.30;33.70;;;1.50;99.90;;;;;;5048567;28;20055;-75
2022/12/19 02:23:18;;;;;;;58.10;33.03;;;1.60;99.90;;;;;;5067616;28;20044;-75
2022/12/19 02:25:57;;;;;;;69.27;34.57;;;1.60;99.90;;;;;;5068062;28;20036;-74
2022/12/19 02:29:06;;;;;;;60.67;31.53;;;1.60;99.90;;;;;;5070029;28;20028;-74
2022/12/19 02:31:59;;;;;;;59.27;31.40;;;1.60;99.90;;;;;;5067196;28;20048;-75
2022/12/19 02:34:42;;;;;;;65.37;31.93;;;1.60;99.90;;;;;;5067751;28;20043;-75
2022/12/19 02:37:31;;;;;;;71.97;36.58;;;1.60;99.90;;;;;;5057949;28;20036;-75
2022/12/19 02:40:12;;;;;;;63.00;35.83;;;1.70;99.90;;;;;;5098598;28;20036;-74
2022/12/19 02:42:42;;;;;;;66.83;35.60;;;1.70;99.90;;;;;;5085076;28;20032;-74
2022/12/19 02:45:12;;;;;;;72.77;35.37;;;1.70;99.90;;;;;;5088785;28;20070;-73
2022/12/19 02:47:40;;;;;;;72.87;38.70;;;1.70;99.90;;;;;;5083690;28;20051;-74
2022/12/19 02:50:07;;;;;;;63.40;34.90;;;1.80;99.90;;;;;;5088632;28;20043;-74
2022/12/19 02:52:34;;;;;;;73.50;36.27;;;1.80;99.90;;;;;;5049611;28;20048;-74
2022/12/19 02:55:09;;;;;;;61.33;30.70;;;1.80;99.90;;;;;;5067795;28;20040;-74
2022/12/19 02:57:54;;;;;;;60.40;32.43;;;1.80;99.90;;;;;;5061263;28;20055;-74
2022/12/19 03:00:24;;;;;;;76.77;36.27;;;1.80;99.90;;;;;;5084333;28;20040;-74
2022/12/19 03:03:02;;;;;;;50.77;29.13;;;1.90;99.90;;;;;;5084097;28;20510;-74
2022/12/19 03:05:38;;;;;;;63.17;33.40;;;1.80;99.90;;;;;;5082230;28;20039;-75
2022/12/19 03:08:44;;;;;;;57.33;30.10;;;1.90;99.90;;;;;;5077339;28;20023;-75
2022/12/19 03:11:13;;;;;;;52.60;29.33;;;1.90;99.90;;;;;;5084325;28;20924;-75
2022/12/19 03:13:56;;;;;;;52.28;28.60;;;1.90;99.90;;;;;;5068540;28;20047;-75
2022/12/19 03:16:23;;;;;;;59.30;30.47;;;1.90;99.90;;;;;;5055497;28;20036;-75
2022/12/19 03:18:53;;;;;;;53.63;29.30;;;1.90;99.90;;;;;;5079884;28;20379;-75
2022/12/19 03:21:34;;;;;;;57.17;29.07;;;1.90;99.90;;;;;;5085155;28;20399;-75
2022/12/19 03:24:02;;;;;;;58.17;29.13;;;1.90;99.90;;;;;;5084585;28;20028;-75
2022/12/19 03:26:33;;;;;;;55.17;29.20;;;1.90;99.90;;;;;;5081960;28;20020;-74
2022/12/19 03:29:09;;;;;;;60.30;31.63;;;1.90;99.90;;;;;;5066668;28;20059;-74
2022/12/19 03:31:37;;;;;;;60.03;30.23;;;2.00;99.90;;;;;;5067649;28;20086;-75
2022/12/19 03:34:31;;;;;;;82.23;38.77;;;2.00;99.90;;;;;;5067939;28;20029;-74
2022/12/19 03:37:02;;;;;;;62.33;33.43;;;2.00;99.90;;;;;;5039773;28;20074;-74
2022/12/19 03:39:31;;;;;;;66.33;32.87;;;2.00;99.90;;;;;;5067428;28;20052;-75
2022/12/19 03:44:45;;;;;;;56.63;31.47;;;2.10;99.90;;;;;;5084469;28;20040;-74
2022/12/19 03:47:22;;;;;;;64.00;33.17;;;2.10;99.90;;;;;;5063473;28;20032;-74
2022/12/19 03:49:49;;;;;;;62.33;32.83;;;2.10;99.90;;;;;;5089526;28;20040;-75
2022/12/19 03:52:50;;;;;;;61.23;31.83;;;2.10;99.90;;;;;;5088534;28;20028;-75
2022/12/19 03:55:22;;;;;;;53.67;30.57;;;2.20;99.90;;;;;;5060133;28;20032;-75
2022/12/19 03:58:08;;;;;;;61.90;31.40;;;2.20;99.90;;;;;;5081754;28;20847;-75
2022/12/19 04:00:39;;;;;;;52.87;27.23;;;2.20;99.90;;;;;;5070964;28;20040;-75
2022/12/19 04:03:08;;;;;;;60.70;32.77;;;2.30;99.90;;;;;;5088486;28;20040;-75
2022/12/19 04:05:36;;;;;;;64.30;31.93;;;2.30;99.90;;;;;;5087650;28;20038;-75
2022/12/19 04:08:07;;;;;;;58.10;31.00;;;2.30;99.90;;;;;;5080812;28;20024;-75
2022/12/19 04:10:42;;;;;;;60.70;33.43;;;2.30;99.90;;;;;;5087704;28;20047;-75
2022/12/19 04:13:12;;;;;;;57.47;32.50;;;2.30;99.90;;;;;;5087823;28;20478;-75
2022/12/19 04:15:39;;;;;;;56.47;30.70;;;2.30;99.90;;;;;;5070652;28;20493;-75
2022/12/19 04:18:06;;;;;;;66.57;35.37;;;2.40;99.90;;;;;;5081965;28;20036;-76
2022/12/19 04:20:37;;;;;;;62.67;31.77;;;2.40;99.90;;;;;;5070280;28;20066;-76
2022/12/19 04:23:07;;;;;;;54.33;30.67;;;2.40;99.90;;;;;;5088072;28;20039;-76
2022/12/19 04:25:43;;;;;;;62.37;31.17;;;2.40;99.90;;;;;;5069940;28;20032;-76
2022/12/19 04:28:21;;;;;;;60.23;31.97;;;2.50;99.90;;;;;;5097535;28;20035;-75
2022/12/19 04:30:48;;;;;;;55.00;28.83;;;2.50;99.90;;;;;;5087057;28;20043;-76
2022/12/19 04:33:14;;;;;;;66.03;33.97;;;2.50;99.90;;;;;;5087246;28;20028;-75
2022/12/19 04:35:41;;;;;;;53.47;30.10;;;2.50;99.90;;;;;;5086795;28;20138;-76
2022/12/19 04:38:07;;;;;;;62.38;33.15;;;2.60;99.90;;;;;;5082229;28;20047;-76
2022/12/19 04:40:34;;;;;;;52.37;30.10;;;2.60;99.90;;;;;;5087444;28;20035;-76
2022/12/19 04:43:01;;;;;;;57.43;30.13;;;2.60;99.90;;;;;;5086839;28;20035;-76
2022/12/19 04:45:27;;;;;;;53.97;28.50;;;2.60;99.90;;;;;;5085398;28;20047;-76
2022/12/19 04:47:53;;;;;;;56.10;30.53;;;2.60;99.90;;;;;;5080085;28;20032;-76
2022/12/19 04:50:20;;;;;;;53.27;27.87;;;2.70;99.90;;;;;;5087142;28;20051;-77
2022/12/19 04:52:46;;;;;;;53.03;29.50;;;2.70;99.90;;;;;;5070175;28;20039;-78
2022/12/19 04:55:13;;;;;;;52.07;27.70;;;2.70;99.90;;;;;;5069762;28;20024;-79
2022/12/19 04:57:39;;;;;;;56.57;29.23;;;2.80;99.90;;;;;;5062636;28;20048;-78
2022/12/19 05:00:07;;;;;;;54.33;29.27;;;2.80;99.90;;;;;;5069739;28;20414;-79
2022/12/19 05:02:37;;;;;;;50.63;26.93;;;2.90;99.90;;;;;;5086842;28;20382;-76
2022/12/19 05:05:04;;;;;;;65.37;30.63;;;2.90;99.90;;;;;;5085937;28;20028;-78
2022/12/19 05:07:30;;;;;;;51.87;29.90;;;2.90;99.90;;;;;;5063013;28;20047;-79
2022/12/19 05:09:56;;;;;;;50.80;27.17;;;3.00;99.90;;;;;;5086374;28;20043;-78
2022/12/19 05:12:22;;;;;;;46.83;26.03;;;3.00;99.90;;;;;;5069653;28;20036;-78
2022/12/19 05:14:49;;;;;;;42.07;25.07;;;3.00;99.90;;;;;;5070000;28;20032;-78
2022/12/19 05:17:15;;;;;;;48.87;28.10;;;3.10;99.90;;;;;;5083145;28;20047;-78
2022/12/19 05:19:42;;;;;;;43.73;26.00;;;3.10;99.90;;;;;;5054823;28;20035;-79
2022/12/19 05:22:08;;;;;;;43.83;25.50;;;3.20;99.90;;;;;;5089247;28;20052;-78
2022/12/19 05:24:35;;;;;;;37.23;20.83;;;3.20;99.90;;;;;;5053004;28;20040;-78
2022/12/19 05:27:01;;;;;;;38.22;23.38;;;3.30;99.90;;;;;;5063637;28;20063;-79
2022/12/19 05:29:27;;;;;;;46.73;25.43;;;3.30;99.90;;;;;;5085929;28;20032;-78
2022/12/19 05:31:54;;;;;;;43.63;25.20;;;3.30;99.90;;;;;;5088003;28;20036;-79
2022/12/19 05:34:20;;;;;;;42.73;25.77;;;3.30;99.90;;;;;;5069543;28;20035;-79
2022/12/19 05:36:46;;;;;;;46.93;27.17;;;3.40;99.90;;;;;;5063094;28;20040;-77
2022/12/19 05:39:13;;;;;;;54.57;28.13;;;3.40;99.90;;;;;;5068128;28;20043;-79
2022/12/19 05:41:39;;;;;;;52.67;26.87;;;3.40;99.90;;;;;;5069226;28;20036;-79
2022/12/19 05:44:05;;;;;;;40.72;24.63;;;3.50;99.90;;;;;;5085727;28;20036;-78
2022/12/19 05:46:32;;;;;;;49.13;26.83;;;3.50;99.90;;;;;;5066882;28;20380;-78
2022/12/19 05:48:58;;;;;;;49.13;25.80;;;3.60;99.90;;;;;;5081927;28;20040;-79
2022/12/19 05:51:24;;;;;;;41.70;23.03;;;3.50;99.90;;;;;;5087414;28;20035;-80
2022/12/19 05:53:51;;;;;;;36.78;22.02;;;3.60;99.90;;;;;;5101629;28;20495;-78
2022/12/19 05:56:20;;;;;;;45.47;26.97;;;3.60;99.90;;;;;;5084922;28;20032;-77
2022/12/19 05:58:47;;;;;;;39.28;24.30;;;3.60;99.90;;;;;;5056430;28;20039;-78
2022/12/19 06:01:23;;;;;;;37.20;23.13;;;3.60;99.90;;;;;;5067062;28;20047;-77
2022/12/19 06:03:50;;;;;;;42.80;25.03;;;3.70;99.90;;;;;;5065936;28;20136;-78
2022/12/19 06:06:19;;;;;;;41.00;24.80;;;3.70;99.90;;;;;;5064667;28;20047;-76
2022/12/19 06:08:45;;;;;;;34.63;22.27;;;3.70;99.90;;;;;;5076268;28;20036;-77
2022/12/19 06:11:13;;;;;;;44.40;23.03;;;3.70;99.90;;;;;;5075754;28;20032;-77
2022/12/19 06:13:40;;;;;;;41.05;24.70;;;3.80;99.90;;;;;;5077089;28;20040;-79
2022/12/19 06:16:11;;;;;;;37.10;23.45;;;3.80;99.90;;;;;;5084050;28;20024;-78
2022/12/19 06:18:39;;;;;;;36.97;22.77;;;3.80;99.90;;;;;;5041269;28;20380;-78
2022/12/19 06:21:09;;;;;;;38.67;23.50;;;3.80;99.90;;;;;;5067718;28;20137;-78
2022/12/19 06:23:36;;;;;;;36.65;21.25;;;3.90;99.90;;;;;;5095678;28;20036;-77
2022/12/19 06:26:05;;;;;;;40.23;19.67;;;3.90;99.90;;;;;;5068067;28;20399;-78
2022/12/19 06:28:32;;;;;;;30.02;18.38;;;3.90;99.90;;;;;;5077874;28;20028;-77
2022/12/19 06:31:01;;;;;;;30.83;18.17;;;3.90;99.90;;;;;;5068741;28;20044;-79
2022/12/19 06:33:28;;;;;;;35.55;19.52;;;3.90;99.90;;;;;;5085737;28;20505;-79
2022/12/19 06:35:59;;;;;;;38.03;21.10;;;3.90;99.90;;;;;;5068102;28;20032;-78
2022/12/19 06:38:27;;;;;;;30.13;19.87;;;4.00;99.90;;;;;;5079136;28;20491;-79
2022/12/19 06:43:38;;;;;;;33.90;21.35;;;4.00;99.90;;;;;;5080292;28;20036;-79
2022/12/19 06:46:06;;;;;;;32.57;20.67;;;4.10;99.90;;;;;;5084956;28;20031;-80
2022/12/19 06:48:32;;;;;;;25.92;17.73;;;4.10;99.90;;;;;;5057652;28;20091;-78
2022/12/19 06:50:58;;;;;;;33.28;19.88;;;4.20;99.90;;;;;;5050695;28;20037;-79
2022/12/19 06:53:25;;;;;;;29.53;19.17;;;4.20;99.90;;;;;;5085183;28;20589;-80
2022/12/19 06:55:55;;;;;;;32.43;19.50;;;4.20;99.90;;;;;;5067995;28;20398;-80
2022/12/19 06:58:21;;;;;;;33.47;19.23;;;4.20;99.90;;;;;;5076821;28;20513;-81
2022/12/19 07:00:48;;;;;;;33.13;18.60;;;4.30;99.90;;;;;;5067204;28;20036;-81
2022/12/19 07:03:18;;;;;;;33.92;18.23;;;4.30;99.90;;;;;;5065968;28;20051;-80
2022/12/19 07:05:44;;;;;;;33.65;18.30;;;4.40;99.90;;;;;;5066071;28;20479;-81
2022/12/19 07:08:11;;;;;;;29.85;18.50;;;4.40;99.90;;;;;;5075943;28;20505;-81
2022/12/19 07:10:38;;;;;;;24.20;16.55;;;4.40;99.90;;;;;;5083599;28;20035;-80
2022/12/19 07:13:04;;;;;;;22.48;15.25;;;4.40;99.90;;;;;;5085022;28;20251;-80
2022/12/19 07:15:32;;;;;;;25.90;16.65;;;4.40;99.90;;;;;;5083327;28;20040;-81
2022/12/19 07:18:00;;;;;;;22.83;16.85;;;4.40;99.90;;;;;;5060225;28;20032;-81
2022/12/19 07:20:28;;;;;;;24.83;16.48;;;4.40;99.90;;;;;;5083638;28;20048;-81
2022/12/19 07:22:54;;;;;;;25.65;17.00;;;4.50;99.90;;;;;;5084093;28;20039;-80
2022/12/19 07:25:20;;;;;;;24.65;16.25;;;4.50;99.90;;;;;;5084136;28;20069;-79
2022/12/19 07:27:47;;;;;;;25.40;16.80;;;4.50;99.90;;;;;;5061685;28;20147;-80
2022/12/19 07:30:13;;;;;;;28.98;19.35;;;4.60;99.90;;;;;;5068519;28;20394;-80
2022/12/19 07:32:40;;;;;;;41.60;20.35;;;4.70;99.90;;;;;;5084261;28;20035;-81
2022/12/19 07:35:06;;;;;;;29.35;17.42;;;4.70;99.90;;;;;;5101405;28;20376;-80
2022/12/19 07:37:33;;;;;;;29.30;18.67;;;4.80;99.90;;;;;;5059918;28;20585;-81
2022/12/19 07:40:00;;;;;;;22.65;14.77;;;4.90;99.90;;;;;;5067824;28;20028;-81
2022/12/19 07:42:26;;;;;;;19.85;13.95;;;5.00;99.90;;;;;;5067546;28;20410;-80
2022/12/19 07:44:52;;;;;;;25.45;15.27;;;5.00;99.90;;;;;;5084344;28;20043;-79
2022/12/19 07:47:19;;;;;;;25.25;16.27;;;5.10;99.90;;;;;;5059806;28;20032;-80
2022/12/19 07:49:45;;;;;;;19.02;13.43;;;5.20;99.90;;;;;;5084579;28;20032;-79
2022/12/19 07:52:11;;;;;;;22.02;14.90;;;5.20;99.90;;;;;;5085080;28;20483;-79
2022/12/19 07:54:38;;;;;;;18.95;12.80;;;5.30;99.90;;;;;;5084370;28;20032;-80
2022/12/19 07:57:04;;;;;;;20.50;13.65;;;5.30;99.90;;;;;;5059657;28;20059;-79
2022/12/19 07:59:30;;;;;;;20.23;13.77;;;5.40;99.90;;;;;;5084941;28;20028;-80
2022/12/19 08:01:57;;;;;;;23.70;15.70;;;5.40;99.90;;;;;;5084854;28;20035;-80
2022/12/19 08:04:23;;;;;;;23.58;14.85;;;5.50;99.90;;;;;;5060676;28;20044;-81
2022/12/19 08:06:49;;;;;;;26.73;16.15;;;5.60;99.90;;;;;;5079542;28;20616;-79
2022/12/19 08:09:16;;;;;;;23.98;17.98;;;5.60;99.90;;;;;;5083069;28;20031;-81
2022/12/19 08:11:42;;;;;;;21.38;13.95;;;5.60;99.90;;;;;;5083259;28;20960;-80
2022/12/19 08:14:09;;;;;;;21.33;14.38;;;5.70;99.90;;;;;;5049533;28;20032;-83
2022/12/19 08:16:35;;;;;;;18.13;13.13;;;5.70;99.90;;;;;;5063063;28;20059;-81
2022/12/19 08:19:02;;;;;;;17.23;12.18;;;5.80;99.90;;;;;;5064720;28;20452;-79
2022/12/19 08:21:29;;;;;;;15.25;11.00;;;5.80;99.90;;;;;;5083679;28;20067;-81
2022/12/19 08:23:55;;;;;;;16.33;10.80;;;5.80;99.90;;;;;;5066800;28;20028;-81
2022/12/19 08:26:25;;;;;;;17.00;10.75;;;5.90;99.90;;;;;;5083980;28;20043;-80
2022/12/19 08:28:54;;;;;;;17.25;12.55;;;5.90;99.90;;;;;;5078418;28;20039;-82
2022/12/19 08:31:23;;;;;;;24.92;14.75;;;5.90;99.90;;;;;;5081577;28;20051;-81
2022/12/19 08:33:51;;;;;;;13.85;11.27;;;6.00;99.90;;;;;;5087288;28;20035;-81
2022/12/19 08:36:19;;;;;;;16.00;11.07;;;6.00;99.90;;;;;;5086078;28;20028;-79
2022/12/19 08:38:46;;;;;;;18.42;12.82;;;6.10;99.90;;;;;;5064135;28;20382;-80
2022/12/19 08:41:13;;;;;;;19.52;13.75;;;6.10;99.90;;;;;;5087329;28;20560;-81
2022/12/19 08:43:39;;;;;;;18.20;12.05;;;6.20;99.90;;;;;;5065674;28;20036;-80
2022/12/19 08:46:06;;;;;;;23.05;13.85;;;6.20;99.90;;;;;;5084498;28;20032;-82
2022/12/19 08:48:33;;;;;;;16.05;11.80;;;6.30;99.90;;;;;;5058675;28;20039;-82
2022/12/19 08:51:03;;;;;;;25.40;19.02;;;6.30;99.90;;;;;;5068930;28;20040;-82
2022/12/19 08:53:31;;;;;;;21.27;14.68;;;6.40;99.90;;;;;;5068467;28;20036;-81
2022/12/19 08:55:59;;;;;;;18.10;15.30;;;6.40;99.90;;;;;;5080236;28;20028;-82
2022/12/19 08:58:28;;;;;;;24.05;15.27;;;6.50;99.90;;;;;;5092627;28;20051;-83
2022/12/19 09:00:59;;;;;;;18.02;13.98;;;6.50;99.90;;;;;;5085761;28;20036;-81
2022/12/19 09:03:26;;;;;;;16.65;11.45;;;6.50;99.90;;;;;;5069817;28;20036;-81
2022/12/19 09:06:03;;;;;;;16.70;10.90;;;6.60;99.90;;;;;;5069380;28;20044;-82
2022/12/19 09:08:31;;;;;;;17.02;10.60;;;6.60;99.90;;;;;;5079594;28;20036;-82
2022/12/19 09:11:07;;;;;;;16.30;11.13;;;6.60;99.90;;;;;;5085335;28;20035;-81
2022/12/19 09:13:35;;;;;;;18.67;11.23;;;6.60;99.90;;;;;;5086675;28;20036;-81
2022/12/19 09:16:19;;;;;;;14.48;9.52;;;6.60;99.90;;;;;;5086490;28;20411;-81
2022/12/19 09:18:47;;;;;;;16.92;11.73;;;6.60;99.90;;;;;;5080451;28;20043;-80
2022/12/19 09:21:15;;;;;;;15.40;12.05;;;6.60;99.90;;;;;;5070904;28;20051;-81
2022/12/19 09:23:42;;;;;;;16.35;11.65;;;6.60;99.90;;;;;;5070028;28;20505;-81
2022/12/19 09:26:11;;;;;;;17.42;11.13;;;6.60;99.90;;;;;;5087041;28;20028;-82
2022/12/19 09:28:39;;;;;;;18.80;12.55;;;6.60;99.90;;;;;;5062373;28;20044;-81
2022/12/19 09:31:32;;;;;;;17.48;12.65;;;6.70;99.90;;;;;;5069619;28;20039;-82
2022/12/19 09:33:58;;;;;;;18.35;13.52;;;6.70;99.90;;;;;;5067230;28;20040;-82
2022/12/19 09:36:25;;;;;;;16.38;12.88;;;6.70;99.90;;;;;;5084630;28;20044;-80
2022/12/19 09:38:56;;;;;;;17.52;12.20;;;6.70;99.90;;;;;;5080522;28;20074;-82
2022/12/19 09:41:51;;;;;;;14.93;10.48;;;6.70;99.90;;;;;;5088350;28;20040;-80
2022/12/19 09:44:40;;;;;;;20.50;14.73;;;6.70;99.90;;;;;;5083460;28;20032;-80
2022/12/19 09:47:22;;;;;;;18.50;12.88;;;6.70;99.90;;;;;;5061516;28;20031;-80
2022/12/19 09:49:50;;;;;;;21.83;14.40;;;6.70;99.90;;;;;;5086185;28;20048;-80
2022/12/19 09:52:49;;;;;;;19.02;13.10;;;6.80;99.90;;;;;;5068487;28;20645;-80
2022/12/19 09:55:21;;;;;;;21.50;13.40;;;6.80;99.90;;;;;;5073501;28;20446;-80
2022/12/19 09:57:54;;;;;;;19.40;12.52;;;6.80;99.90;;;;;;5078113;28;20040;-81
2022/12/19 10:00:21;;;;;;;15.48;11.02;;;6.90;99.90;;;;;;5085591;28;20024;-81
2022/12/19 10:03:06;;;;;;;14.77;10.95;;;6.90;99.90;;;;;;5085439;28;20032;-80
2022/12/19 10:05:32;;;;;;;17.38;11.32;;;6.90;99.90;;;;;;5085735;28;20047;-80
2022/12/19 10:08:00;;;;;;;16.50;12.40;;;6.90;99.90;;;;;;5060813;28;20504;-80
2022/12/19 10:10:46;;;;;;;16.23;11.60;;;6.90;99.90;;;;;;5085669;28;20039;-80
2022/12/19 10:13:13;;;;;;;19.85;13.05;;;6.90;99.90;;;;;;5067601;28;20039;-79
2022/12/19 10:16:02;;;;;;;16.35;12.40;;;6.90;99.90;;;;;;5068314;28;20043;-81
2022/12/19 10:18:34;;;;;;;18.40;11.85;;;6.90;99.90;;;;;;5061138;28;20044;-81
2022/12/19 10:21:32;;;;;;;16.65;13.07;;;6.90;99.90;;;;;;5065726;28;20044;-80
2022/12/19 10:24:25;;;;;;;17.55;11.40;;;7.00;99.90;;;;;;5085086;28;20043;-81
2022/12/19 10:26:54;;;;;;;19.20;13.27;;;7.00;99.90;;;;;;5062329;28;20047;-79
2022/12/19 10:29:53;;;;;;;20.48;12.98;;;7.00;99.90;;;;;;5080201;28;20978;-80
2022/12/19 10:32:29;;;;;;;17.20;12.40;;;7.00;99.90;;;;;;5066626;28;20023;-79
2022/12/19 10:34:56;;;;;;;19.00;12.38;;;7.00;99.90;;;;;;5066483;28;20154;-79
2022/12/19 10:37:28;;;;;;;18.20;13.15;;;7.00;99.90;;;;;;5074511;28;20400;-79
2022/12/19 10:39:59;;;;;;;19.38;14.75;;;7.00;99.90;;;;;;5067940;28;20084;-78
2022/12/19 10:43:04;;;;;;;23.05;16.40;;;7.00;99.90;;;;;;5073139;28;20071;-78
2022/12/19 10:45:37;;;;;;;16.80;12.00;;;7.00;99.90;;;;;;5101587;28;20036;-81
2022/12/19 10:48:07;;;;;;;18.98;11.82;;;7.10;99.90;;;;;;5078750;28;20028;-80
2022/12/19 10:50:35;;;;;;;17.25;12.07;;;7.10;99.90;;;;;;5083038;28;20024;-80
2022/12/19 10:53:09;;;;;;;17.38;12.55;;;7.10;99.90;;;;;;5086741;28;20040;-80
2022/12/19 10:55:44;;;;;;;14.18;10.38;;;7.20;99.90;;;;;;5084015;28;20032;-81
2022/12/19 10:58:34;;;;;;;15.18;11.27;;;7.20;99.90;;;;;;5076201;28;20628;-80
2022/12/19 11:01:14;;;;;;;16.90;11.43;;;7.20;99.90;;;;;;5076387;28;20036;-81
2022/12/19 11:03:45;;;;;;;17.10;12.55;;;7.20;99.90;;;;;;5084262;28;20510;-80
2022/12/19 11:06:33;;;;;;;16.25;12.55;;;7.30;99.90;;;;;;5084296;28;20040;-80
2022/12/19 11:09:28;;;;;;;13.70;10.50;;;7.30;99.90;;;;;;5061902;28;20056;-81
2022/12/19 11:11:59;;;;;;;13.60;10.63;;;7.30;99.90;;;;;;5085045;28;20080;-80
2022/12/19 11:14:28;;;;;;;14.10;10.68;;;7.30;99.90;;;;;;5087534;28;20024;-80
2022/12/19 11:16:55;;;;;;;15.40;12.02;;;7.30;99.90;;;;;;5077806;28;20051;-79
2022/12/19 11:19:41;;;;;;;14.25;10.65;;;7.30;99.90;;;;;;5083362;28;20098;-81
2022/12/19 11:22:31;;;;;;;14.55;9.95;;;7.40;99.90;;;;;;5085115;28;20044;-81
2022/12/19 11:24:58;;;;;;;15.15;11.13;;;7.30;99.90;;;;;;5102816;28;20043;-80
2022/12/19 11:27:34;;;;;;;16.65;11.30;;;7.40;99.90;;;;;;5058737;28;20047;-80
2022/12/19 11:30:14;;;;;;;16.83;11.85;;;7.40;99.90;;;;;;5085049;28;20036;-80
2022/12/19 11:32:43;;;;;;;14.07;10.82;;;7.40;99.90;;;;;;5086136;28;20047;-81
2022/12/19 11:35:17;;;;;;;21.05;15.13;;;7.30;99.90;;;;;;5090085;28;20028;-81
2022/12/19 11:37:51;;;;;;;16.98;11.57;;;7.30;99.90;;;;;;5077505;28;20044;-79
2022/12/19 11:40:27;;;;;;;21.77;14.52;;;7.40;99.90;;;;;;5086839;28;20039;-81
2022/12/19 11:42:57;;;;;;;20.05;12.95;;;7.40;99.90;;;;;;5070931;28;20483;-81
2022/12/19 11:45:31;;;;;;;18.50;13.50;;;7.40;99.90;;;;;;5088684;28;20123;-82
2022/12/19 11:48:14;;;;;;;20.83;13.27;;;7.40;99.90;;;;;;5060783;28;20043;-80
2022/12/19 11:51:05;;;;;;;15.27;11.68;;;7.50;99.90;;;;;;5085125;28;20055;-81
2022/12/19 11:53:42;;;;;;;13.40;9.73;;;7.50;99.90;;;;;;5055822;28;20495;-80
2022/12/19 11:56:12;;;;;;;13.23;8.60;;;7.50;99.90;;;;;;5085896;28;20391;-81
2022/12/19 11:58:38;;;;;;;13.75;9.30;;;7.50;99.90;;;;;;5058638;28;20044;-80
2022/12/19 12:01:16;;;;;;;23.45;17.80;;;7.50;99.90;;;;;;5058691;28;20335;-81
2022/12/19 12:03:55;;;;;;;20.33;15.07;;;7.50;99.90;;;;;;5074909;28;20031;-81
2022/12/19 12:06:27;;;;;;;16.70;11.73;;;7.60;99.90;;;;;;5075333;28;20078;-81
2022/12/19 12:09:14;;;;;;;15.15;12.13;;;7.60;99.90;;;;;;5073795;28;20345;-80
2022/12/19 12:11:51;;;;;;;12.15;9.27;;;7.60;99.90;;;;;;5078439;28;20486;-80
2022/12/19 12:14:52;;;;;;;19.73;14.02;;;7.70;99.90;;;;;;5052447;28;20063;-80
2022/12/19 12:17:46;;;;;;;19.42;11.85;;;7.70;99.90;;;;;;5046192;28;20098;-79
2022/12/19 12:20:33;;;;;;;19.50;13.18;;;7.80;99.90;;;;;;5088070;28;20032;-80
2022/12/19 12:23:22;;;;;;;20.23;12.88;;;7.80;99.90;;;;;;5067546;28;20375;-81
2022/12/19 12:26:02;;;;;;;16.55;11.32;;;7.80;99.90;;;;;;5079897;28;20403;-80
2022/12/19 12:28:43;;;;;;;16.13;10.77;;;7.80;99.90;;;;;;5079508;28;20395;-81
2022/12/19 12:31:35;;;;;;;16.80;10.23;;;7.90;99.90;;;;;;5070661;28;20036;-80
2022/12/19 12:34:26;;;;;;;14.57;10.80;;;7.90;99.90;;;;;;5069753;28;20040;-80
2022/12/19 12:37:22;;;;;;;14.95;10.50;;;7.90;99.90;;;;;;5082044;28;20039;-79
2022/12/19 12:40:10;;;;;;;17.10;11.80;;;7.90;99.90;;;;;;5087165;28;20040;-81
2022/12/19 12:43:14;;;;;;;19.20;13.88;;;7.90;99.90;;;;;;5086966;28;20024;-79
2022/12/19 12:45:46;;;;;;;14.95;11.88;;;7.90;99.90;;;;;;5084577;28;20035;-81
2022/12/19 12:48:20;;;;;;;15.45;11.57;;;8.00;99.90;;;;;;5078550;28;20036;-81
2022/12/19 12:50:49;;;;;;;13.93;10.90;;;8.00;99.90;;;;;;5087218;28;20036;-80
2022/12/19 12:53:20;;;;;;;16.70;10.93;;;8.00;99.90;;;;;;5070758;28;20040;-80
2022/12/19 12:55:47;;;;;;;18.05;11.80;;;8.00;99.90;;;;;;5070774;28;20047;-80
2022/12/19 12:58:43;;;;;;;13.70;10.13;;;8.00;99.90;;;;;;5076497;28;20043;-80
2022/12/19 13:01:17;;;;;;;16.60;10.07;;;8.00;99.90;;;;;;5061333;28;20043;-81
2022/12/19 13:04:06;;;;;;;14.10;11.15;;;8.00;99.90;;;;;;5089094;28;20050;-80
2022/12/19 13:06:36;;;;;;;16.65;12.27;;;8.00;99.90;;;;;;5085723;28;20036;-79
2022/12/19 13:09:28;;;;;;;16.80;10.73;;;8.10;99.90;;;;;;5080304;28;20040;-80
2022/12/19 13:14:48;;;;;;;14.77;10.15;;;8.10;99.90;;;;;;5066999;28;20505;-80